Time;durP1;ratioP1;P1;durP2;ratioP2;P2;SDS_P1;SDS_P2;PMS_P1;PMS_P2;Temp;Humidity;BMP_temperature;BMP_pressure;BME280_temperature;BME280_humidity;BME280_pressure;Samples;Min_cycle;Max_cycle;Signal;HPM_P1;HPM_P2
2023/09/05 00:00:10;;;;;;;4.93;4.53;;;15.40;99.90;;;;;;5048909;28;20465;-68
2023/09/05 00:02:39;;;;;;;5.13;4.73;;;15.30;99.90;;;;;;5032309;28;20454;-67
2023/09/05 00:05:07;;;;;;;4.47;3.60;;;15.30;99.90;;;;;;5033514;28;20430;-72
2023/09/05 00:07:36;;;;;;;5.63;4.70;;;15.30;99.90;;;;;;5045275;28;21036;-67
2023/09/05 00:10:05;;;;;;;6.10;4.40;;;15.30;99.90;;;;;;5053600;28;20433;-71
2023/09/05 00:12:32;;;;;;;5.13;4.73;;;15.30;99.90;;;;;;5039081;28;20413;-71
2023/09/05 00:14:58;;;;;;;4.40;4.00;;;15.30;99.90;;;;;;5038256;28;20425;-72
2023/09/05 00:17:24;;;;;;;4.50;4.20;;;15.20;99.90;;;;;;5038008;28;20969;-67
2023/09/05 00:19:51;;;;;;;4.53;4.17;;;15.20;99.90;;;;;;5037248;28;20446;-73
2023/09/05 00:22:20;;;;;;;4.47;4.13;;;15.20;99.90;;;;;;5037121;28;20444;-68
2023/09/05 00:24:45;;;;;;;5.20;4.90;;;15.20;99.90;;;;;;5039306;28;20941;-67
2023/09/05 00:27:11;;;;;;;4.90;4.50;;;15.30;99.90;;;;;;5034652;28;20421;-70
2023/09/05 00:29:39;;;;;;;5.37;4.87;;;15.30;99.90;;;;;;5037259;28;20621;-68
2023/09/05 00:32:05;;;;;;;4.97;4.57;;;15.30;99.90;;;;;;5037428;28;20426;-72
2023/09/05 00:34:33;;;;;;;4.23;3.93;;;15.30;99.90;;;;;;5054355;28;20436;-70
2023/09/05 00:37:00;;;;;;;5.03;4.53;;;15.30;99.90;;;;;;5053221;28;20813;-67
2023/09/05 00:39:30;;;;;;;4.73;4.33;;;15.40;99.90;;;;;;5067099;28;20481;-73
2023/09/05 00:41:56;;;;;;;5.13;4.67;;;15.30;99.90;;;;;;5036284;28;20420;-67
2023/09/05 00:44:26;;;;;;;4.70;4.37;;;15.30;99.90;;;;;;5040560;28;20577;-67
2023/09/05 00:46:54;;;;;;;5.20;4.80;;;15.40;99.90;;;;;;5049428;28;20437;-66
2023/09/05 00:49:28;;;;;;;5.00;4.50;;;15.40;99.90;;;;;;5040303;28;20443;-70
2023/09/05 00:51:57;;;;;;;4.60;4.30;;;15.40;99.90;;;;;;5035758;28;20438;-70
2023/09/05 00:54:23;;;;;;;4.90;4.40;;;15.30;99.90;;;;;;5049971;28;20482;-70
2023/09/05 00:56:49;;;;;;;4.73;4.20;;;15.30;99.90;;;;;;5035319;28;20907;-73
2023/09/05 00:59:16;;;;;;;4.53;4.23;;;15.30;99.90;;;;;;5035400;28;20639;-69
2023/09/05 01:01:42;;;;;;;5.03;4.63;;;15.30;99.90;;;;;;5035377;28;20453;-66
2023/09/05 01:04:08;;;;;;;4.80;4.10;;;15.30;99.90;;;;;;5035988;28;20905;-66
2023/09/05 01:07:11;;;;;;;3.97;3.60;;;15.30;99.90;;;;;;5036856;28;20225;-71
2023/09/05 01:09:56;;;;;;;4.63;4.30;;;15.30;99.90;;;;;;5045191;28;20424;-69
2023/09/05 01:12:23;;;;;;;4.77;4.37;;;15.30;99.90;;;;;;5036416;28;20414;-72
2023/09/05 01:14:49;;;;;;;4.63;4.33;;;15.30;99.90;;;;;;5045764;28;20429;-74
2023/09/05 01:17:14;;;;;;;4.00;3.60;;;15.20;99.90;;;;;;5034973;28;20434;-74
2023/09/05 01:19:41;;;;;;;5.03;4.33;;;15.30;99.90;;;;;;5042035;28;20203;-70
2023/09/05 01:22:13;;;;;;;4.53;4.00;;;15.30;99.90;;;;;;5047058;28;20178;-72
2023/09/05 01:24:40;;;;;;;4.20;3.90;;;15.30;99.90;;;;;;5055319;28;20414;-71
2023/09/05 01:27:07;;;;;;;4.63;4.23;;;15.20;99.90;;;;;;5034330;28;20489;-67
2023/09/05 01:29:39;;;;;;;4.07;3.77;;;15.20;99.90;;;;;;5041013;28;20469;-72
2023/09/05 01:32:07;;;;;;;4.53;4.20;;;15.20;99.90;;;;;;5038985;28;20438;-72
2023/09/05 01:34:33;;;;;;;5.47;4.40;;;15.20;99.90;;;;;;5049959;28;20433;-66
2023/09/05 01:36:58;;;;;;;6.10;4.30;;;15.20;99.90;;;;;;5051155;28;20433;-72
2023/09/05 01:39:24;;;;;;;3.83;3.53;;;15.10;99.90;;;;;;5039822;28;20676;-71
2023/09/05 01:41:50;;;;;;;4.40;4.10;;;15.10;99.90;;;;;;5052219;28;20210;-72
2023/09/05 01:44:16;;;;;;;4.60;4.23;;;15.10;99.90;;;;;;5049126;28;20632;-70
2023/09/05 01:46:42;;;;;;;4.17;3.80;;;15.10;99.90;;;;;;5046240;28;20465;-72
2023/09/05 01:49:09;;;;;;;5.00;4.27;;;15.10;99.90;;;;;;5047864;28;20802;-72
2023/09/05 01:51:34;;;;;;;5.03;4.60;;;15.20;99.90;;;;;;5052657;28;20952;-66
2023/09/05 01:54:00;;;;;;;6.40;4.67;;;15.10;99.90;;;;;;5055971;28;20492;-73
2023/09/05 01:56:26;;;;;;;5.00;4.70;;;15.10;99.90;;;;;;5053281;28;20182;-72
2023/09/05 01:58:51;;;;;;;4.07;3.77;;;15.10;99.90;;;;;;5053779;28;20210;-66
2023/09/05 02:01:17;;;;;;;5.73;4.40;;;15.10;99.90;;;;;;5040080;28;20179;-71
2023/09/05 02:03:43;;;;;;;4.40;4.10;;;15.10;99.90;;;;;;5037102;28;20255;-72
2023/09/05 02:06:08;;;;;;;4.10;3.80;;;15.10;99.90;;;;;;5052122;28;20171;-69
2023/09/05 02:08:34;;;;;;;4.30;4.00;;;15.10;99.90;;;;;;5049196;28;20241;-72
2023/09/05 02:11:01;;;;;;;4.33;3.93;;;15.10;99.90;;;;;;5053406;28;20205;-73
2023/09/05 02:13:28;;;;;;;3.97;3.70;;;15.00;99.90;;;;;;5053473;28;20424;-72
2023/09/05 02:15:54;;;;;;;6.47;4.70;;;15.00;99.90;;;;;;5033552;28;20441;-72
2023/09/05 02:18:19;;;;;;;4.90;4.50;;;15.00;99.90;;;;;;5046580;28;20465;-66
2023/09/05 02:20:45;;;;;;;5.33;4.60;;;15.00;99.90;;;;;;5038332;28;20578;-67
2023/09/05 02:23:11;;;;;;;7.33;4.00;;;15.10;99.90;;;;;;5047433;28;20211;-67
2023/09/05 02:25:36;;;;;;;6.57;4.93;;;15.10;99.90;;;;;;5038735;28;20633;-75
2023/09/05 02:28:02;;;;;;;4.00;3.70;;;15.10;99.90;;;;;;5034147;28;20195;-73
2023/09/05 02:30:29;;;;;;;6.50;5.80;;;15.10;99.90;;;;;;5045430;28;20214;-73
2023/09/05 02:32:55;;;;;;;4.20;3.80;;;15.10;99.90;;;;;;5052587;28;20209;-66
2023/09/05 02:35:27;;;;;;;4.60;4.20;;;15.00;99.90;;;;;;5053467;28;20413;-73
2023/09/05 02:37:55;;;;;;;5.93;4.37;;;15.00;99.90;;;;;;5052663;28;20536;-73
2023/09/05 02:40:21;;;;;;;4.50;4.20;;;15.00;99.90;;;;;;5052181;28;20503;-73
2023/09/05 02:42:47;;;;;;;7.60;4.40;;;15.00;99.90;;;;;;5058177;28;20529;-72
2023/09/05 02:45:13;;;;;;;4.00;3.70;;;15.00;99.90;;;;;;5051937;28;20405;-73
2023/09/05 02:47:39;;;;;;;5.43;4.93;;;15.00;99.90;;;;;;5035739;28;20231;-72
2023/09/05 02:50:06;;;;;;;5.30;4.80;;;15.00;99.90;;;;;;5043371;28;20456;-73
2023/09/05 02:52:33;;;;;;;5.30;4.83;;;15.00;99.90;;;;;;5051447;28;20984;-69
2023/09/05 02:54:58;;;;;;;4.87;4.47;;;15.00;99.90;;;;;;5052947;28;20406;-67
2023/09/05 02:57:24;;;;;;;5.70;5.20;;;15.00;99.90;;;;;;5044561;28;20441;-72
2023/09/05 02:59:54;;;;;;;4.43;4.13;;;15.00;99.90;;;;;;5053578;28;20198;-72
2023/09/05 03:02:23;;;;;;;4.57;4.20;;;15.00;99.90;;;;;;5035192;28;20179;-66
2023/09/05 03:04:53;;;;;;;5.10;4.77;;;15.00;99.90;;;;;;5040508;28;20801;-75
2023/09/05 03:07:20;;;;;;;5.07;4.67;;;15.00;99.90;;;;;;5052309;28;20493;-67
2023/09/05 03:09:46;;;;;;;4.23;3.93;;;15.00;99.90;;;;;;5053327;28;20401;-68
2023/09/05 03:12:11;;;;;;;4.33;4.03;;;14.90;99.90;;;;;;5046362;28;20448;-66
2023/09/05 03:14:37;;;;;;;4.63;4.33;;;14.90;99.90;;;;;;5047802;28;20160;-72
2023/09/05 03:17:04;;;;;;;4.63;4.33;;;14.90;99.90;;;;;;5035548;28;20187;-72
2023/09/05 03:19:30;;;;;;;4.83;4.43;;;14.90;99.90;;;;;;5040289;28;20213;-73
2023/09/05 03:21:56;;;;;;;4.50;4.20;;;14.90;99.90;;;;;;5046196;28;20913;-73
2023/09/05 03:24:25;;;;;;;5.10;4.80;;;14.90;99.90;;;;;;5045307;28;20175;-66
2023/09/05 03:26:51;;;;;;;5.10;4.67;;;14.90;99.90;;;;;;5034716;28;20197;-74
2023/09/05 03:29:16;;;;;;;5.47;5.00;;;14.90;99.90;;;;;;5043596;28;20454;-67
2023/09/05 03:31:43;;;;;;;5.50;5.00;;;14.90;99.90;;;;;;5045825;28;20187;-66
2023/09/05 03:34:09;;;;;;;4.70;4.30;;;14.90;99.90;;;;;;5053768;28;20163;-71
2023/09/05 03:36:35;;;;;;;5.20;4.80;;;14.90;99.90;;;;;;5045218;28;20434;-67
2023/09/05 03:39:01;;;;;;;6.10;4.43;;;14.90;99.90;;;;;;5049958;28;20469;-71
2023/09/05 03:41:28;;;;;;;6.27;5.53;;;14.90;99.90;;;;;;5035367;28;20430;-72
2023/09/05 03:43:54;;;;;;;4.93;4.53;;;14.90;99.90;;;;;;5037803;28;20421;-67
2023/09/05 03:46:20;;;;;;;5.00;4.60;;;14.80;99.90;;;;;;5036999;28;20426;-72
2023/09/05 03:48:47;;;;;;;5.40;4.83;;;14.80;99.90;;;;;;5036706;28;20454;-73
2023/09/05 03:51:12;;;;;;;7.33;4.97;;;14.80;99.90;;;;;;5042049;28;20516;-73
2023/09/05 03:53:38;;;;;;;5.60;4.37;;;14.80;99.90;;;;;;5052440;28;20457;-66
2023/09/05 03:56:04;;;;;;;5.13;4.73;;;14.80;99.90;;;;;;5056820;28;20635;-73
2023/09/05 03:58:31;;;;;;;5.63;5.23;;;14.80;99.90;;;;;;5052922;28;20202;-73
2023/09/05 04:00:58;;;;;;;9.23;5.87;;;14.70;99.90;;;;;;5051004;28;20324;-71
2023/09/05 04:03:25;;;;;;;7.03;6.20;;;14.70;99.90;;;;;;5057543;28;20462;-67
2023/09/05 04:05:50;;;;;;;7.03;6.37;;;14.70;99.90;;;;;;5037933;28;20521;-72
2023/09/05 04:08:16;;;;;;;8.17;5.17;;;14.60;99.90;;;;;;5048718;28;20580;-72
2023/09/05 04:10:42;;;;;;;6.60;6.10;;;14.60;99.90;;;;;;5040663;28;20240;-72
2023/09/05 04:13:08;;;;;;;5.57;4.80;;;14.60;99.90;;;;;;5055839;28;20179;-73
2023/09/05 04:15:33;;;;;;;7.47;4.40;;;14.60;99.90;;;;;;5051134;28;20465;-73
2023/09/05 04:18:00;;;;;;;6.13;5.53;;;14.50;99.90;;;;;;5051692;28;20257;-67
2023/09/05 04:20:26;;;;;;;5.70;5.20;;;14.50;99.90;;;;;;5046055;28;20207;-74
2023/09/05 04:22:51;;;;;;;5.00;4.60;;;14.50;99.90;;;;;;5036547;28;20437;-72
2023/09/05 04:25:17;;;;;;;4.83;4.50;;;14.50;99.90;;;;;;5035259;28;20834;-67
2023/09/05 04:27:43;;;;;;;5.43;4.63;;;14.40;99.90;;;;;;5037775;28;20266;-66
2023/09/05 04:30:09;;;;;;;5.10;4.70;;;14.40;99.90;;;;;;5055871;28;20234;-73
2023/09/05 04:32:35;;;;;;;5.10;4.70;;;14.40;99.90;;;;;;5051854;28;20187;-70
2023/09/05 04:35:03;;;;;;;5.43;4.93;;;14.40;99.90;;;;;;5037640;28;20787;-73
2023/09/05 04:37:29;;;;;;;5.00;4.60;;;14.40;99.90;;;;;;5042712;28;20503;-73
2023/09/05 04:39:55;;;;;;;4.87;4.47;;;14.40;99.90;;;;;;5035727;28;20450;-67
2023/09/05 04:42:21;;;;;;;4.77;4.33;;;14.40;99.90;;;;;;5036194;28;20402;-69
2023/09/05 04:44:49;;;;;;;5.77;5.27;;;14.40;99.90;;;;;;5036609;28;20418;-70
2023/09/05 04:47:26;;;;;;;5.17;4.77;;;14.30;99.90;;;;;;5035021;28;20429;-73
2023/09/05 04:49:59;;;;;;;6.23;5.27;;;14.30;99.90;;;;;;5041139;28;20448;-73
2023/09/05 04:52:26;;;;;;;5.30;4.90;;;14.30;99.90;;;;;;5056198;28;20402;-67
2023/09/05 04:54:53;;;;;;;5.60;5.10;;;14.30;99.90;;;;;;5055129;28;20889;-72
2023/09/05 04:57:19;;;;;;;5.63;5.20;;;14.30;99.90;;;;;;5049605;28;20798;-67
2023/09/05 04:59:47;;;;;;;5.40;4.80;;;14.20;99.90;;;;;;5056273;28;20527;-66
2023/09/05 05:02:16;;;;;;;8.20;6.07;;;14.20;99.90;;;;;;5045190;28;20171;-72
2023/09/05 05:04:43;;;;;;;8.00;5.50;;;14.20;99.90;;;;;;5052034;28;20425;-72
2023/09/05 05:07:09;;;;;;;7.60;5.90;;;14.30;99.90;;;;;;5033073;28;20422;-74
2023/09/05 05:09:35;;;;;;;8.80;6.60;;;14.30;99.90;;;;;;5044996;28;20432;-72
2023/09/05 05:12:01;;;;;;;13.57;9.30;;;14.30;99.90;;;;;;5037536;28;20480;-70
2023/09/05 05:14:28;;;;;;;17.40;12.00;;;14.30;99.90;;;;;;5036021;28;20425;-71
2023/09/05 05:16:54;;;;;;;31.40;20.60;;;14.30;99.90;;;;;;5044110;28;20457;-66
2023/09/05 05:19:21;;;;;;;43.20;27.23;;;14.30;99.90;;;;;;5047023;28;20519;-73
2023/09/05 05:21:50;;;;;;;38.63;26.03;;;14.40;99.90;;;;;;5038311;28;20433;-72
2023/09/05 05:24:15;;;;;;;29.77;19.10;;;14.40;99.90;;;;;;5034941;28;20399;-67
2023/09/05 05:26:43;;;;;;;29.57;19.60;;;14.40;99.90;;;;;;5043233;28;21327;-68
2023/09/05 05:29:09;;;;;;;28.93;18.33;;;14.40;99.90;;;;;;5056511;28;20694;-72
2023/09/05 05:31:36;;;;;;;20.00;14.90;;;14.40;99.90;;;;;;5054629;28;20420;-68
2023/09/05 05:34:02;;;;;;;16.87;12.60;;;14.50;99.90;;;;;;5049413;28;20428;-71
2023/09/05 05:36:29;;;;;;;12.07;10.47;;;14.50;99.90;;;;;;5050996;28;20468;-69
2023/09/05 05:38:56;;;;;;;11.67;9.27;;;14.50;99.90;;;;;;5035387;28;20453;-66
2023/09/05 05:41:22;;;;;;;7.97;7.10;;;14.50;99.90;;;;;;5040450;28;20408;-66
2023/09/05 05:43:48;;;;;;;8.83;7.90;;;14.50;99.90;;;;;;5054220;28;20844;-66
2023/09/05 05:46:14;;;;;;;7.50;6.80;;;14.60;99.90;;;;;;5053828;28;20175;-67
2023/09/05 05:48:46;;;;;;;9.10;7.20;;;14.60;99.90;;;;;;5034756;28;20446;-72
2023/09/05 05:51:13;;;;;;;7.40;6.27;;;14.60;99.90;;;;;;5033621;28;20474;-67
2023/09/05 05:53:40;;;;;;;6.67;6.10;;;14.60;99.90;;;;;;5048251;28;20509;-67
2023/09/05 05:56:08;;;;;;;6.97;6.47;;;14.70;99.90;;;;;;5047819;28;20521;-73
2023/09/05 05:58:34;;;;;;;8.40;5.67;;;14.70;99.90;;;;;;5034108;28;20958;-67
2023/09/05 06:01:00;;;;;;;6.37;5.87;;;14.80;99.90;;;;;;5034952;28;20461;-72
2023/09/05 06:03:26;;;;;;;6.00;5.50;;;14.80;99.90;;;;;;5033650;28;20431;-72
2023/09/05 06:05:52;;;;;;;6.40;5.80;;;14.80;99.90;;;;;;5043120;28;20837;-66
2023/09/05 06:08:17;;;;;;;6.00;5.60;;;14.90;99.90;;;;;;5034834;28;20719;-66
2023/09/05 06:10:44;;;;;;;6.17;5.67;;;15.00;99.90;;;;;;5035027;28;20225;-72
2023/09/05 06:13:11;;;;;;;9.00;8.10;;;15.10;99.90;;;;;;5044658;28;20437;-66
2023/09/05 06:15:37;;;;;;;7.60;6.80;;;15.20;99.90;;;;;;5053432;28;20451;-72
2023/09/05 06:18:04;;;;;;;7.90;6.23;;;15.30;99.90;;;;;;5045937;28;20437;-67
2023/09/05 06:20:34;;;;;;;7.73;7.00;;;15.50;99.90;;;;;;5032303;28;20450;-75
2023/09/05 06:23:00;;;;;;;8.50;6.77;;;15.60;99.90;;;;;;5041471;28;20426;-72
2023/09/05 06:25:27;;;;;;;5.83;5.40;;;15.80;1.00;;;;;;5038487;28;20430;-67
2023/09/05 06:27:53;;;;;;;6.50;5.90;;;15.80;1.00;;;;;;5046722;28;20465;-67
2023/09/05 06:30:19;;;;;;;6.53;5.93;;;15.90;1.00;;;;;;5053838;28;20467;-66
2023/09/05 06:32:44;;;;;;;5.73;5.17;;;16.00;1.00;;;;;;5042612;28;20421;-66
2023/09/05 06:35:10;;;;;;;6.27;5.77;;;16.10;1.00;;;;;;5052836;28;20421;-71
2023/09/05 06:37:36;;;;;;;5.60;5.10;;;16.20;1.00;;;;;;5042150;28;20211;-69
2023/09/05 06:40:12;;;;;;;10.10;6.00;;;16.30;1.00;;;;;;5032667;28;20204;-67
2023/09/05 06:42:39;;;;;;;7.13;5.00;;;16.40;1.00;;;;;;5033973;28;20968;-67
2023/09/05 06:45:05;;;;;;;6.10;5.47;;;16.50;99.90;;;;;;5033121;28;20489;-72
2023/09/05 06:47:31;;;;;;;6.93;5.40;;;16.70;99.90;;;;;;5031631;28;20969;-72
2023/09/05 06:49:57;;;;;;;6.23;4.73;;;16.80;99.90;;;;;;5042554;28;20438;-72
2023/09/05 06:52:23;;;;;;;8.33;5.47;;;16.90;99.90;;;;;;5032704;28;20249;-67
2023/09/05 06:54:48;;;;;;;5.60;5.10;;;17.00;99.90;;;;;;5041273;28;20185;-70
2023/09/05 06:57:16;;;;;;;5.40;5.00;;;17.10;99.90;;;;;;5052843;28;20405;-67
2023/09/05 06:59:42;;;;;;;5.93;5.43;;;17.20;99.90;;;;;;5035244;28;20260;-72
2023/09/05 07:02:07;;;;;;;5.50;5.00;;;17.30;99.90;;;;;;5034006;28;20438;-72
2023/09/05 07:04:36;;;;;;;5.10;4.47;;;17.40;99.90;;;;;;5033564;28;20168;-67
2023/09/05 07:07:05;;;;;;;5.17;4.83;;;17.50;99.90;;;;;;5032526;28;20167;-68
2023/09/05 07:09:31;;;;;;;4.73;4.30;;;17.70;99.90;;;;;;5048499;28;20404;-66
2023/09/05 07:11:57;;;;;;;4.83;4.30;;;17.80;99.90;;;;;;5042724;28;20456;-67
2023/09/05 07:14:23;;;;;;;5.00;4.70;;;17.90;99.90;;;;;;5032299;28;20501;-68
2023/09/05 07:16:49;;;;;;;5.27;4.87;;;18.00;99.90;;;;;;5036889;28;20198;-70
2023/09/05 07:19:16;;;;;;;5.77;5.13;;;18.00;99.90;;;;;;5033156;28;20466;-72
2023/09/05 07:21:42;;;;;;;5.07;4.67;;;18.10;99.90;;;;;;5033360;28;20214;-73
2023/09/05 07:24:13;;;;;;;5.90;5.50;;;18.20;99.90;;;;;;5033000;28;20422;-66
2023/09/05 07:26:40;;;;;;;5.10;4.70;;;18.30;99.90;;;;;;5032769;28;20176;-67
2023/09/05 07:29:10;;;;;;;5.77;4.50;;;18.40;99.90;;;;;;5031932;28;20519;-72
2023/09/05 07:31:39;;;;;;;5.67;5.17;;;18.40;99.90;;;;;;5033829;28;20487;-68
2023/09/05 07:34:06;;;;;;;5.20;4.80;;;18.50;99.90;;;;;;5033338;28;20450;-71
2023/09/05 07:36:33;;;;;;;5.93;4.80;;;18.60;99.90;;;;;;5032188;28;20413;-69
2023/09/05 07:39:01;;;;;;;5.10;4.80;;;18.70;99.90;;;;;;5033014;28;20414;-66
2023/09/05 07:41:28;;;;;;;6.43;4.87;;;18.80;99.90;;;;;;5041411;28;20485;-71
2023/09/05 07:43:54;;;;;;;5.83;5.43;;;18.90;99.90;;;;;;5040617;28;20430;-72
2023/09/05 07:46:20;;;;;;;5.13;4.63;;;18.90;99.90;;;;;;5031288;28;20433;-72
2023/09/05 07:48:47;;;;;;;8.47;4.93;;;19.00;99.90;;;;;;5031947;28;20195;-66
2023/09/05 07:51:13;;;;;;;5.50;5.03;;;19.10;99.90;;;;;;5033110;28;20434;-70
2023/09/05 07:53:39;;;;;;;5.13;4.73;;;19.20;99.90;;;;;;5032680;28;20434;-72
2023/09/05 07:56:06;;;;;;;6.00;5.40;;;19.30;99.90;;;;;;5048559;28;20440;-72
2023/09/05 07:58:33;;;;;;;6.30;5.10;;;19.50;99.90;;;;;;5052865;28;20504;-71
2023/09/05 08:00:59;;;;;;;6.33;5.73;;;19.60;99.90;;;;;;5039125;28;20502;-71
2023/09/05 08:03:26;;;;;;;5.50;5.10;;;19.70;99.90;;;;;;5031605;28;20406;-71
2023/09/05 08:05:53;;;;;;;5.50;5.07;;;19.90;99.90;;;;;;5033714;28;20426;-66
2023/09/05 08:08:20;;;;;;;6.60;4.63;;;20.10;97.40;;;;;;5044803;28;20459;-71
2023/09/05 08:10:46;;;;;;;6.00;4.53;;;20.30;95.80;;;;;;5052824;28;20404;-72
2023/09/05 08:13:13;;;;;;;5.13;4.63;;;20.40;95.90;;;;;;5052590;28;20754;-67
2023/09/05 08:15:40;;;;;;;5.03;4.60;;;20.50;95.90;;;;;;5033886;28;20430;-67
2023/09/05 08:18:06;;;;;;;6.00;4.50;;;20.70;90.90;;;;;;5045748;28;20451;-72
2023/09/05 08:20:32;;;;;;;5.23;4.70;;;20.80;81.10;;;;;;5034666;28;20462;-69
2023/09/05 08:22:57;;;;;;;5.43;4.90;;;20.90;58.90;;;;;;5032610;28;20176;-66
2023/09/05 08:25:24;;;;;;;7.80;4.80;;;21.10;49.90;;;;;;5032542;28;20305;-72
2023/09/05 08:27:53;;;;;;;5.67;4.93;;;21.20;41.10;;;;;;5040466;28;20206;-72
2023/09/05 08:30:23;;;;;;;4.63;4.23;;;21.40;34.00;;;;;;5037206;28;20429;-67
2023/09/05 08:32:54;;;;;;;5.30;4.80;;;21.60;26.40;;;;;;5044992;28;20433;-68
2023/09/05 08:35:20;;;;;;;4.80;4.27;;;21.70;35.90;;;;;;5053658;28;20436;-66
2023/09/05 08:37:46;;;;;;;6.10;4.40;;;21.80;4.90;;;;;;5036053;28;20527;-66
2023/09/05 08:40:13;;;;;;;4.37;3.97;;;21.90;1.00;;;;;;5056098;28;20205;-67
2023/09/05 08:42:39;;;;;;;4.13;3.17;;;22.00;1.00;;;;;;5054849;28;20175;-68
2023/09/05 08:45:11;;;;;;;4.67;4.30;;;22.10;1.00;;;;;;5040808;28;20484;-66
2023/09/05 08:47:38;;;;;;;7.20;4.13;;;22.20;1.00;;;;;;5052984;28;20445;-66
2023/09/05 08:50:04;;;;;;;9.33;4.50;;;22.20;1.00;;;;;;5055986;28;20914;-72
2023/09/05 08:52:36;;;;;;;5.30;4.03;;;22.20;1.00;;;;;;5046995;28;20976;-66
2023/09/05 08:55:02;;;;;;;4.37;4.07;;;22.30;1.00;;;;;;5035203;28;20410;-74
2023/09/05 08:57:29;;;;;;;4.50;4.20;;;22.30;1.00;;;;;;5050615;28;20969;-67
2023/09/05 08:59:55;;;;;;;4.63;3.40;;;22.40;1.00;;;;;;5043595;28;20461;-68
2023/09/05 09:02:21;;;;;;;4.23;3.20;;;22.70;1.00;;;;;;5034568;28;20454;-68
2023/09/05 09:04:51;;;;;;;4.13;3.73;;;22.90;1.00;;;;;;5037105;28;20462;-72
2023/09/05 09:07:17;;;;;;;3.70;3.40;;;23.10;1.00;;;;;;5054423;28;20163;-71
2023/09/05 09:09:43;;;;;;;3.83;3.43;;;23.40;1.00;;;;;;5041381;28;20472;-68
2023/09/05 09:12:09;;;;;;;5.47;3.80;;;23.80;1.00;;;;;;5038134;28;20454;-73
2023/09/05 09:14:35;;;;;;;10.90;6.93;;;24.20;1.00;;;;;;5054202;28;20635;-72
2023/09/05 09:17:02;;;;;;;3.93;3.63;;;24.50;1.00;;;;;;5042404;28;20437;-71
2023/09/05 09:19:30;;;;;;;3.50;3.20;;;24.80;1.00;;;;;;5035346;28;20974;-74
2023/09/05 09:22:03;;;;;;;3.60;3.30;;;25.00;1.00;;;;;;5035556;28;20391;-74
2023/09/05 09:24:35;;;;;;;4.00;3.43;;;24.90;1.00;;;;;;5054174;28;20397;-70
2023/09/05 09:27:05;;;;;;;3.67;2.93;;;25.00;1.00;;;;;;5048871;28;20779;-73
2023/09/05 09:29:32;;;;;;;5.03;2.60;;;25.10;1.00;;;;;;5045764;28;20433;-70
2023/09/05 09:32:05;;;;;;;4.67;2.77;;;25.40;1.00;;;;;;5053773;28;20797;-69
2023/09/05 09:34:34;;;;;;;3.17;2.97;;;25.80;1.00;;;;;;5047846;28;20532;-68
2023/09/05 09:37:00;;;;;;;4.97;2.80;;;26.40;1.00;;;;;;5046608;28;20524;-72
2023/09/05 09:39:29;;;;;;;4.57;3.57;;;26.70;1.00;;;;;;5053209;28;20882;-72
2023/09/05 09:41:59;;;;;;;3.17;2.77;;;27.00;1.00;;;;;;5055100;28;20543;-71
2023/09/05 09:44:25;;;;;;;3.40;2.83;;;27.00;1.00;;;;;;5051773;28;21113;-68
2023/09/05 09:46:52;;;;;;;5.47;2.63;;;27.10;1.00;;;;;;5052337;28;20906;-72
2023/09/05 09:49:19;;;;;;;3.33;2.60;;;27.20;1.00;;;;;;5054633;28;20421;-72
2023/09/05 09:51:51;;;;;;;4.43;2.20;;;27.30;1.00;;;;;;5043725;28;20541;-73
2023/09/05 09:54:21;;;;;;;3.63;2.90;;;27.50;1.00;;;;;;5034899;28;20453;-71
2023/09/05 09:56:48;;;;;;;3.77;2.30;;;27.50;1.00;;;;;;5037758;28;20527;-71
2023/09/05 09:59:18;;;;;;;3.00;2.73;;;27.60;1.00;;;;;;5052919;28;20847;-69
2023/09/05 10:01:44;;;;;;;3.10;2.80;;;27.30;1.00;;;;;;5053885;28;20401;-72
2023/09/05 10:04:12;;;;;;;9.63;2.57;;;27.10;1.00;;;;;;5054908;28;20788;-70
2023/09/05 10:06:38;;;;;;;3.23;2.70;;;27.10;1.00;;;;;;5040048;28;20512;-70
2023/09/05 10:09:05;;;;;;;3.00;2.23;;;27.00;1.00;;;;;;5054517;28;20460;-69
2023/09/05 10:11:32;;;;;;;3.43;2.43;;;27.00;1.00;;;;;;5044775;28;20170;-73
2023/09/05 10:13:58;;;;;;;2.40;2.20;;;27.20;1.00;;;;;;5038681;28;20429;-75
2023/09/05 10:16:25;;;;;;;3.67;2.60;;;27.40;1.00;;;;;;5051067;28;20434;-73
2023/09/05 10:18:54;;;;;;;3.23;2.10;;;27.60;1.00;;;;;;5053890;28;20463;-71
2023/09/05 10:21:23;;;;;;;2.60;2.17;;;27.60;1.00;;;;;;5045296;28;20517;-69
2023/09/05 10:23:52;;;;;;;2.73;2.17;;;27.40;1.00;;;;;;5034455;28;20418;-68
2023/09/05 10:26:18;;;;;;;3.33;2.20;;;27.30;1.00;;;;;;5035548;28;20401;-73
2023/09/05 10:28:44;;;;;;;5.90;3.60;;;27.30;1.00;;;;;;5037432;28;20467;-73
2023/09/05 10:31:13;;;;;;;3.30;2.93;;;27.30;1.00;;;;;;5034219;28;20410;-68
2023/09/05 10:33:42;;;;;;;2.53;2.33;;;27.20;1.00;;;;;;5034266;28;20189;-68
2023/09/05 10:36:41;;;;;;;2.27;2.07;;;27.10;1.00;;;;;;5031841;28;20505;-74
2023/09/05 10:39:25;;;;;;;2.20;2.00;;;27.00;1.00;;;;;;5046690;28;20450;-68
2023/09/05 10:41:51;;;;;;;2.67;2.47;;;26.80;1.00;;;;;;5053988;28;20405;-68
2023/09/05 10:44:17;;;;;;;3.30;2.50;;;26.80;1.00;;;;;;5052260;28;20862;-69
2023/09/05 10:46:43;;;;;;;2.93;2.73;;;27.00;1.00;;;;;;5052826;28;20489;-68
2023/09/05 10:49:12;;;;;;;3.20;2.90;;;26.90;1.00;;;;;;5052366;28;20191;-71
2023/09/05 10:52:17;;;;;;;3.80;2.83;;;27.40;1.00;;;;;;5052385;28;20186;-73
2023/09/05 10:54:43;;;;;;;3.13;2.93;;;28.10;1.00;;;;;;5051525;28;20516;-72
2023/09/05 10:57:38;;;;;;;3.93;2.77;;;28.50;1.00;;;;;;5050513;28;20500;-68
2023/09/05 11:00:29;;;;;;;3.80;2.67;;;28.50;1.00;;;;;;5045567;28;20215;-69
2023/09/05 11:02:56;;;;;;;4.03;2.90;;;28.30;1.00;;;;;;5036336;28;20445;-68
2023/09/05 11:05:26;;;;;;;3.70;3.10;;;27.90;1.00;;;;;;5050046;28;20433;-69
2023/09/05 11:07:55;;;;;;;5.63;3.27;;;27.60;1.00;;;;;;5051465;28;20451;-73
2023/09/05 11:10:28;;;;;;;5.10;3.00;;;27.40;1.00;;;;;;5052043;28;20438;-73
2023/09/05 11:12:54;;;;;;;3.13;2.90;;;27.40;1.00;;;;;;5053057;28;20475;-73
2023/09/05 11:15:44;;;;;;;3.73;2.97;;;27.20;1.00;;;;;;5050113;28;20436;-68
2023/09/05 11:18:12;;;;;;;4.60;3.47;;;26.70;1.00;;;;;;5052209;28;20453;-75
2023/09/05 11:20:46;;;;;;;5.10;3.70;;;26.50;1.00;;;;;;5053057;28;20440;-68
2023/09/05 11:23:12;;;;;;;3.53;2.80;;;26.50;1.00;;;;;;5053129;28;20497;-70
2023/09/05 11:25:46;;;;;;;4.53;3.00;;;26.50;1.00;;;;;;5052383;28;20801;-68
2023/09/05 11:28:13;;;;;;;4.90;2.90;;;26.70;1.00;;;;;;5036851;28;20954;-68
2023/09/05 11:30:42;;;;;;;2.97;2.77;;;26.70;1.00;;;;;;5049359;28;20441;-75
2023/09/05 11:33:10;;;;;;;3.10;2.80;;;26.50;1.00;;;;;;5050991;28;20414;-68
2023/09/05 11:35:38;;;;;;;3.37;3.07;;;26.20;1.00;;;;;;5052187;28;20386;-74
2023/09/05 11:38:04;;;;;;;4.73;2.93;;;26.00;1.00;;;;;;5053142;28;20425;-72
2023/09/05 11:40:30;;;;;;;3.50;3.20;;;25.80;1.00;;;;;;5050850;28;20475;-69
2023/09/05 11:43:07;;;;;;;3.93;3.63;;;25.80;1.00;;;;;;5051882;28;20414;-68
2023/09/05 11:45:34;;;;;;;2.63;2.37;;;26.30;1.00;;;;;;5035512;28;20919;-68
2023/09/05 11:48:03;;;;;;;2.90;2.57;;;27.60;1.00;;;;;;5033055;28;20803;-68
2023/09/05 11:50:31;;;;;;;4.63;2.80;;;28.80;1.00;;;;;;5032240;28;20461;-68
2023/09/05 11:52:59;;;;;;;2.27;2.10;;;29.50;1.00;;;;;;5049738;28;20424;-73
2023/09/05 11:55:25;;;;;;;3.40;2.20;;;30.00;1.00;;;;;;5051389;28;20433;-72
2023/09/05 11:57:56;;;;;;;2.97;2.10;;;30.20;1.00;;;;;;5051751;28;20539;-70
2023/09/05 12:00:23;;;;;;;2.53;2.13;;;30.10;1.00;;;;;;5051066;28;20483;-68
2023/09/05 12:02:51;;;;;;;4.60;2.00;;;30.00;1.00;;;;;;5054246;28;20421;-69
2023/09/05 12:05:19;;;;;;;2.60;2.40;;;29.70;1.00;;;;;;5037168;28;20476;-69
2023/09/05 12:07:55;;;;;;;3.70;2.27;;;29.40;1.00;;;;;;5036672;28;20907;-75
2023/09/05 12:10:24;;;;;;;2.10;2.00;;;29.20;1.00;;;;;;5035013;28;20501;-72
2023/09/05 12:12:59;;;;;;;3.77;2.50;;;29.00;1.00;;;;;;5039079;28;20430;-69
2023/09/05 12:15:29;;;;;;;2.83;2.63;;;28.90;1.00;;;;;;5043048;28;20476;-67
2023/09/05 12:17:56;;;;;;;2.50;2.10;;;29.00;1.00;;;;;;5038062;28;20473;-73
2023/09/05 12:20:22;;;;;;;3.77;2.53;;;29.10;1.00;;;;;;5036025;28;20462;-69
2023/09/05 12:22:48;;;;;;;2.47;2.07;;;29.50;1.00;;;;;;5037551;28;20513;-70
2023/09/05 12:25:15;;;;;;;3.40;2.40;;;29.80;1.00;;;;;;5041057;28;20517;-71
2023/09/05 12:27:46;;;;;;;4.17;2.37;;;30.40;1.00;;;;;;5036491;28;20235;-74
2023/09/05 12:30:27;;;;;;;4.83;2.60;;;30.90;1.00;;;;;;5051136;28;20791;-68
2023/09/05 12:33:03;;;;;;;2.87;2.67;;;31.70;1.00;;;;;;5036234;28;20428;-73
2023/09/05 12:35:31;;;;;;;2.50;2.23;;;32.40;1.00;;;;;;5034624;28;20510;-68
2023/09/05 12:37:59;;;;;;;2.83;1.83;;;33.10;1.00;;;;;;5035047;28;20442;-68
2023/09/05 12:40:26;;;;;;;2.70;2.20;;;33.80;1.00;;;;;;5036049;28;20453;-67
2023/09/05 12:42:52;;;;;;;3.13;2.17;;;34.60;99.90;;;;;;5041583;28;20478;-69
2023/09/05 12:45:18;;;;;;;2.10;1.90;;;35.10;99.90;;;;;;5053461;28;20428;-66
2023/09/05 12:47:49;;;;;;;3.03;2.13;;;35.70;99.90;;;;;;5052107;28;20237;-66
2023/09/05 12:50:15;;;;;;;2.13;1.93;;;36.40;99.90;;;;;;5038166;28;20460;-68
2023/09/05 12:52:44;;;;;;;2.63;2.43;;;36.90;99.90;;;;;;5036227;28;20429;-68